Time;durP1;ratioP1;P1;durP2;ratioP2;P2;SDS_P1;SDS_P2;PMS_P1;PMS_P2;Temp;Humidity;BMP_temperature;BMP_pressure;BME280_temperature;BME280_humidity;BME280_pressure;Samples;Min_cycle;Max_cycle;Signal;HPM_P1;HPM_P2
2021/05/30 00:00:47;;;;;;;4.60;4.23;;;11.40;96.00;;;;;;4863428;29;20857;-80
2021/05/30 00:03:14;;;;;;;5.33;4.90;;;11.40;96.30;;;;;;4863080;29;20883;-80
2021/05/30 00:05:40;;;;;;;5.03;4.20;;;11.40;96.60;;;;;;4862990;29;20460;-80
2021/05/30 00:08:07;;;;;;;5.50;4.80;;;11.30;96.80;;;;;;4863008;29;20851;-80
2021/05/30 00:10:34;;;;;;;4.30;3.90;;;11.40;97.00;;;;;;4862676;29;20508;-80
2021/05/30 00:13:01;;;;;;;5.27;4.30;;;11.30;97.20;;;;;;4862698;29;20460;-80
2021/05/30 00:15:28;;;;;;;4.70;4.30;;;11.30;97.20;;;;;;4863495;29;20836;-80
2021/05/30 00:17:54;;;;;;;4.70;4.37;;;11.20;97.40;;;;;;4863093;29;20550;-80
2021/05/30 00:20:20;;;;;;;4.13;3.70;;;11.20;97.50;;;;;;4863712;29;20480;-80
2021/05/30 00:22:47;;;;;;;4.47;4.07;;;11.10;97.90;;;;;;4862943;29;20461;-80
2021/05/30 00:25:14;;;;;;;3.50;3.20;;;11.00;98.20;;;;;;4863431;29;20465;-80
2021/05/30 00:27:40;;;;;;;6.50;6.00;;;11.00;98.50;;;;;;4863256;29;20472;-80
2021/05/30 00:30:07;;;;;;;5.17;4.77;;;10.80;99.00;;;;;;4863275;29;20484;-80
2021/05/30 00:32:35;;;;;;;4.27;3.90;;;10.80;99.30;;;;;;4863261;29;20589;-80
2021/05/30 00:35:01;;;;;;;4.97;4.47;;;10.80;99.40;;;;;;4863018;29;20471;-80
2021/05/30 00:37:28;;;;;;;4.13;3.87;;;10.80;99.40;;;;;;4863033;29;20845;-80
2021/05/30 00:39:54;;;;;;;5.40;4.90;;;10.80;99.60;;;;;;4863760;29;20480;-80
2021/05/30 00:42:20;;;;;;;3.93;3.60;;;10.70;99.60;;;;;;4865596;29;20460;-80
2021/05/30 00:44:46;;;;;;;4.90;4.23;;;10.70;99.80;;;;;;4866383;29;20513;-80
2021/05/30 00:47:13;;;;;;;3.60;3.30;;;10.60;99.90;;;;;;4871854;29;20461;-78
2021/05/30 00:49:40;;;;;;;4.23;3.93;;;10.60;99.90;;;;;;4870606;29;20513;-78
2021/05/30 00:52:06;;;;;;;4.13;3.80;;;10.60;99.90;;;;;;4871283;29;20490;-79
2021/05/30 00:54:35;;;;;;;3.87;3.67;;;10.60;99.90;;;;;;4869370;29;20462;-80
2021/05/30 00:57:04;;;;;;;3.60;3.30;;;10.60;99.90;;;;;;4866238;29;20458;-80
2021/05/30 00:59:30;;;;;;;3.50;3.20;;;10.60;99.80;;;;;;4866136;29;20478;-80
2021/05/30 01:01:57;;;;;;;3.93;3.63;;;10.60;99.70;;;;;;4865539;29;20451;-80
2021/05/30 01:04:23;;;;;;;3.13;2.77;;;10.60;99.50;;;;;;4866982;29;20456;-80
2021/05/30 01:06:54;;;;;;;4.20;3.70;;;10.60;99.50;;;;;;4865834;29;20460;-80
2021/05/30 01:09:20;;;;;;;3.13;2.93;;;10.60;99.40;;;;;;4866242;29;20569;-80
2021/05/30 01:11:47;;;;;;;3.60;3.30;;;10.60;99.20;;;;;;4866016;29;20499;-80
2021/05/30 01:14:14;;;;;;;3.10;2.87;;;10.60;99.10;;;;;;4865837;29;20464;-80
2021/05/30 01:16:41;;;;;;;2.70;2.50;;;10.50;98.90;;;;;;4865867;29;20460;-79
2021/05/30 01:19:10;;;;;;;3.97;3.57;;;10.50;98.80;;;;;;4866467;29;20460;-81
2021/05/30 01:21:37;;;;;;;3.10;2.80;;;10.40;98.80;;;;;;4866178;29;20464;-80
2021/05/30 01:24:05;;;;;;;3.60;3.30;;;10.40;99.50;;;;;;4866352;29;20463;-80
2021/05/30 01:26:32;;;;;;;4.50;4.20;;;10.40;99.10;;;;;;4866208;29;20455;-81
2021/05/30 01:28:58;;;;;;;4.30;3.90;;;10.40;99.10;;;;;;4865920;29;20474;-80
2021/05/30 01:31:25;;;;;;;8.03;3.97;;;10.40;99.20;;;;;;4865881;29;20499;-80
2021/05/30 01:33:51;;;;;;;4.80;4.30;;;10.40;99.30;;;;;;4865679;29;20475;-80
2021/05/30 01:36:17;;;;;;;4.60;4.30;;;10.40;99.50;;;;;;4865831;29;20830;-81
2021/05/30 01:38:43;;;;;;;4.10;3.80;;;10.50;99.50;;;;;;4866449;29;20473;-81
2021/05/30 01:41:10;;;;;;;4.10;3.80;;;10.50;99.60;;;;;;4865820;29;21017;-80
2021/05/30 01:43:37;;;;;;;4.37;3.97;;;10.50;99.70;;;;;;4865468;29;20523;-81
2021/05/30 01:46:03;;;;;;;4.77;4.37;;;10.50;99.70;;;;;;4865872;29;20495;-81
2021/05/30 01:48:30;;;;;;;4.73;4.20;;;10.50;99.90;;;;;;4865479;29;20468;-80
2021/05/30 01:50:56;;;;;;;4.70;4.30;;;10.50;99.90;;;;;;4865725;29;20508;-80
2021/05/30 01:53:30;;;;;;;4.40;4.00;;;10.50;99.90;;;;;;4865364;29;20955;-80
2021/05/30 01:58:43;;;;;;;5.30;4.17;;;10.40;99.90;;;;;;4865124;29;20832;-81
2021/05/30 02:01:13;;;;;;;7.23;5.03;;;10.40;99.90;;;;;;4865815;29;20475;-81
2021/05/30 02:03:41;;;;;;;5.10;4.60;;;10.40;99.90;;;;;;4864153;29;20961;-81
2021/05/30 02:06:08;;;;;;;4.93;4.43;;;10.30;99.90;;;;;;4865104;29;20463;-80
2021/05/30 02:08:38;;;;;;;4.60;4.17;;;10.40;99.90;;;;;;4865482;29;20457;-80
2021/05/30 02:11:08;;;;;;;5.10;4.50;;;10.40;99.90;;;;;;4865234;29;20491;-80
2021/05/30 02:13:34;;;;;;;4.97;4.63;;;10.30;99.90;;;;;;4865208;29;20946;-80
2021/05/30 02:16:03;;;;;;;5.67;5.17;;;10.30;99.90;;;;;;4865608;29;20499;-81
2021/05/30 02:18:29;;;;;;;4.10;3.80;;;10.30;99.90;;;;;;4865207;29;20991;-81
2021/05/30 02:20:55;;;;;;;5.22;4.78;;;10.30;99.90;;;;;;4864948;29;20482;-80
2021/05/30 02:23:21;;;;;;;6.60;6.00;;;10.40;99.90;;;;;;4864952;29;20222;-80
2021/05/30 02:25:48;;;;;;;4.33;4.03;;;10.30;99.90;;;;;;4865635;29;20467;-81
2021/05/30 02:28:14;;;;;;;4.13;3.83;;;10.30;99.90;;;;;;4864548;29;20463;-81
2021/05/30 02:30:40;;;;;;;4.47;4.07;;;10.30;99.90;;;;;;4865004;29;20490;-81
2021/05/30 02:33:07;;;;;;;4.70;4.35;;;10.20;99.90;;;;;;4865121;29;20462;-81
2021/05/30 02:35:34;;;;;;;4.53;4.13;;;10.20;99.90;;;;;;4864853;29;20219;-81
2021/05/30 02:38:00;;;;;;;4.60;4.30;;;10.20;99.90;;;;;;4865070;29;20546;-81
2021/05/30 02:40:26;;;;;;;6.50;4.27;;;10.10;99.90;;;;;;4864319;29;21077;-81
2021/05/30 02:42:52;;;;;;;4.37;4.07;;;10.10;99.90;;;;;;4865225;29;20871;-81
2021/05/30 02:45:19;;;;;;;4.50;4.10;;;10.10;99.90;;;;;;4865148;29;20474;-81
2021/05/30 02:47:45;;;;;;;4.87;4.47;;;10.00;99.90;;;;;;4864572;29;20455;-81
2021/05/30 02:50:12;;;;;;;5.23;4.50;;;10.00;99.90;;;;;;4863601;29;21018;-80
2021/05/30 02:52:40;;;;;;;5.17;4.77;;;9.90;99.90;;;;;;4864240;29;20501;-81
2021/05/30 02:55:07;;;;;;;4.37;3.97;;;9.90;99.90;;;;;;4864757;29;20560;-81
2021/05/30 02:57:33;;;;;;;5.60;4.60;;;9.80;99.90;;;;;;4864249;29;20471;-81
2021/05/30 03:00:00;;;;;;;4.87;4.57;;;9.80;99.90;;;;;;4864998;29;20493;-80
2021/05/30 03:02:26;;;;;;;6.32;5.70;;;9.80;99.90;;;;;;4864165;29;20943;-80
2021/05/30 03:04:52;;;;;;;6.43;4.73;;;9.70;99.90;;;;;;4864022;29;20223;-81
2021/05/30 03:07:19;;;;;;;5.20;4.70;;;9.80;99.90;;;;;;4864570;29;20473;-81
2021/05/30 03:09:46;;;;;;;5.30;4.77;;;9.80;99.90;;;;;;4863795;29;20530;-81
2021/05/30 03:12:12;;;;;;;5.83;5.37;;;9.80;99.90;;;;;;4864071;29;20593;-80
2021/05/30 03:14:38;;;;;;;4.70;4.30;;;9.80;99.90;;;;;;4864745;29;20554;-81
2021/05/30 03:17:04;;;;;;;5.07;4.78;;;9.80;99.90;;;;;;4864473;29;20459;-81
2021/05/30 03:19:31;;;;;;;4.73;4.30;;;9.80;99.90;;;;;;4864102;29;20231;-81
2021/05/30 03:21:57;;;;;;;4.65;4.25;;;9.80;99.90;;;;;;4864170;29;20465;-81
2021/05/30 03:24:24;;;;;;;4.83;4.43;;;9.80;99.90;;;;;;4864659;29;20239;-81
2021/05/30 03:26:51;;;;;;;5.50;4.67;;;9.80;99.90;;;;;;4864851;29;20464;-81
2021/05/30 03:29:17;;;;;;;4.90;4.40;;;9.80;99.90;;;;;;4864726;29;20491;-81
2021/05/30 03:31:43;;;;;;;4.85;4.35;;;9.80;99.90;;;;;;4863563;29;20713;-81
2021/05/30 03:34:10;;;;;;;5.87;4.80;;;9.70;99.90;;;;;;4864143;29;20223;-81
2021/05/30 03:36:36;;;;;;;5.17;4.77;;;9.70;99.90;;;;;;4864066;29;20463;-80
2021/05/30 03:39:06;;;;;;;5.47;4.93;;;9.70;99.90;;;;;;4864207;29;20479;-80
2021/05/30 03:41:36;;;;;;;5.35;4.85;;;9.70;99.90;;;;;;4863872;29;20211;-81
2021/05/30 03:44:04;;;;;;;5.50;4.90;;;9.70;99.90;;;;;;4864051;29;20275;-80
2021/05/30 03:46:31;;;;;;;5.60;4.40;;;9.60;99.90;;;;;;4864119;29;20214;-81
2021/05/30 03:48:58;;;;;;;4.75;4.35;;;9.60;99.90;;;;;;4863613;29;20823;-81
2021/05/30 03:51:24;;;;;;;4.97;4.57;;;9.60;99.90;;;;;;4863257;29;20238;-81
2021/05/30 03:53:50;;;;;;;5.00;4.60;;;9.60;99.90;;;;;;4864188;29;20872;-81
2021/05/30 03:56:17;;;;;;;6.25;4.95;;;9.60;99.90;;;;;;4864137;29;20451;-80
2021/05/30 03:58:44;;;;;;;5.93;5.43;;;9.60;99.90;;;;;;4863830;29;20212;-80
2021/05/30 04:01:10;;;;;;;5.60;5.15;;;9.60;99.90;;;;;;4864018;29;20474;-80
2021/05/30 04:03:36;;;;;;;5.97;5.10;;;9.60;99.90;;;;;;4863403;29;20218;-81
2021/05/30 04:06:03;;;;;;;6.25;5.65;;;9.60;99.90;;;;;;4863725;29;20455;-81
2021/05/30 04:08:29;;;;;;;4.78;4.28;;;9.70;99.90;;;;;;4864212;29;20219;-81
2021/05/30 04:10:56;;;;;;;4.50;4.10;;;9.70;99.90;;;;;;4863392;29;20277;-80
2021/05/30 04:13:22;;;;;;;5.00;4.57;;;9.70;99.90;;;;;;4863466;29;20214;-80
2021/05/30 04:15:49;;;;;;;5.43;4.97;;;9.70;99.90;;;;;;4866002;29;20460;-80
2021/05/30 04:18:15;;;;;;;4.10;3.80;;;9.70;99.90;;;;;;4866901;29;20211;-81
2021/05/30 04:20:42;;;;;;;4.15;3.85;;;9.70;99.90;;;;;;4867105;29;20486;-81
2021/05/30 04:23:08;;;;;;;5.67;4.60;;;9.70;99.90;;;;;;4866929;29;20214;-81
2021/05/30 04:25:34;;;;;;;5.50;4.85;;;9.70;99.90;;;;;;4867275;29;20458;-81
2021/05/30 04:28:00;;;;;;;6.67;5.73;;;9.70;99.90;;;;;;4867958;29;20218;-81
2021/05/30 04:30:27;;;;;;;4.65;4.25;;;9.70;99.90;;;;;;4867414;29;20552;-81
2021/05/30 04:32:54;;;;;;;5.60;5.10;;;9.70;99.90;;;;;;4866852;29;20232;-80
2021/05/30 04:35:20;;;;;;;7.07;4.27;;;9.70;99.90;;;;;;4867968;29;20466;-81
2021/05/30 04:37:46;;;;;;;4.40;4.00;;;9.80;99.90;;;;;;4867544;29;20521;-81
2021/05/30 04:40:13;;;;;;;4.40;3.93;;;9.80;99.90;;;;;;4866963;29;20921;-81
2021/05/30 04:42:39;;;;;;;4.60;4.20;;;9.90;99.90;;;;;;4867246;29;20523;-81
2021/05/30 04:45:07;;;;;;;4.03;3.73;;;9.90;99.90;;;;;;4866960;29;20461;-81
2021/05/30 04:47:34;;;;;;;4.70;4.40;;;10.00;99.90;;;;;;4867094;29;21104;-81
2021/05/30 04:50:02;;;;;;;4.00;3.70;;;10.00;99.90;;;;;;4866485;29;20618;-81
2021/05/30 04:52:28;;;;;;;3.90;3.60;;;10.10;99.90;;;;;;4866164;29;20501;-80
2021/05/30 04:54:54;;;;;;;4.33;3.93;;;10.10;99.90;;;;;;4866428;29;20457;-81
2021/05/30 04:57:20;;;;;;;4.93;4.53;;;10.20;99.90;;;;;;4866946;29;20462;-81
2021/05/30 04:59:47;;;;;;;5.20;4.40;;;10.20;99.90;;;;;;4866800;29;20510;-81
2021/05/30 05:02:13;;;;;;;5.53;5.03;;;10.30;99.90;;;;;;4866059;29;20517;-81
2021/05/30 05:04:39;;;;;;;4.83;4.40;;;10.30;99.90;;;;;;4866837;29;20525;-81
2021/05/30 05:07:06;;;;;;;4.57;4.17;;;10.40;99.90;;;;;;4867361;29;20831;-81
2021/05/30 05:09:32;;;;;;;4.83;4.20;;;10.60;99.90;;;;;;4866582;29;20489;-81
2021/05/30 05:11:59;;;;;;;4.77;4.47;;;10.60;99.90;;;;;;4866161;29;20497;-81
2021/05/30 05:14:25;;;;;;;4.60;3.57;;;10.70;99.90;;;;;;4866929;29;20462;-81
2021/05/30 05:16:51;;;;;;;3.57;3.27;;;10.80;99.90;;;;;;4867030;29;20474;-81
2021/05/30 05:19:17;;;;;;;4.07;3.70;;;10.90;99.90;;;;;;4866417;29;20630;-82
2021/05/30 05:21:44;;;;;;;4.27;3.97;;;10.90;99.90;;;;;;4865643;29;20500;-81
2021/05/30 05:24:11;;;;;;;4.50;4.10;;;11.00;99.90;;;;;;4865381;29;20455;-81
2021/05/30 05:26:37;;;;;;;4.37;3.97;;;11.10;99.90;;;;;;4865157;29;20452;-80
2021/05/30 05:29:03;;;;;;;4.23;3.77;;;11.20;99.90;;;;;;4865206;29;20475;-80
2021/05/30 05:31:30;;;;;;;3.73;3.43;;;11.30;99.90;;;;;;4865378;29;20503;-80
2021/05/30 05:33:56;;;;;;;5.20;4.70;;;11.40;99.90;;;;;;4865831;29;20463;-81
2021/05/30 05:36:22;;;;;;;3.40;3.10;;;11.40;99.90;;;;;;4865273;29;20460;-80
2021/05/30 05:38:48;;;;;;;3.80;3.50;;;11.50;99.90;;;;;;4866350;29;20468;-81
2021/05/30 05:41:16;;;;;;;5.77;4.23;;;11.60;99.90;;;;;;4866002;29;20488;-80
2021/05/30 05:43:42;;;;;;;3.43;3.23;;;11.70;99.80;;;;;;4865516;29;20493;-81
2021/05/30 05:46:08;;;;;;;4.77;4.27;;;11.80;99.60;;;;;;4865940;29;20468;-81
2021/05/30 05:48:34;;;;;;;3.17;2.97;;;12.00;99.30;;;;;;4865580;29;20975;-81
2021/05/30 05:51:01;;;;;;;3.50;3.17;;;12.10;99.00;;;;;;4865993;29;20902;-81
2021/05/30 05:53:28;;;;;;;3.40;3.10;;;12.10;99.10;;;;;;4865847;29;20467;-81
2021/05/30 05:55:54;;;;;;;4.20;3.90;;;12.30;98.90;;;;;;4865762;29;20471;-81
2021/05/30 05:58:21;;;;;;;3.13;2.93;;;12.40;98.70;;;;;;4865795;29;20558;-81
2021/05/30 06:00:48;;;;;;;4.70;4.33;;;12.40;98.60;;;;;;4866124;29;20477;-81
2021/05/30 06:03:14;;;;;;;3.87;3.57;;;12.50;98.30;;;;;;4865501;29;20472;-80
2021/05/30 06:05:40;;;;;;;4.13;3.67;;;12.60;98.20;;;;;;4866134;29;20468;-80
2021/05/30 06:08:06;;;;;;;3.47;3.17;;;12.60;97.90;;;;;;4865650;29;20468;-80
2021/05/30 06:10:34;;;;;;;2.93;2.70;;;12.70;97.80;;;;;;4865323;29;20477;-83
2021/05/30 06:13:02;;;;;;;3.40;3.10;;;12.80;97.30;;;;;;4865318;29;21026;-80
2021/05/30 06:15:30;;;;;;;5.20;3.90;;;12.80;97.00;;;;;;4865475;29;20472;-80
2021/05/30 06:17:58;;;;;;;3.67;3.37;;;12.90;96.70;;;;;;4865787;29;21055;-80
2021/05/30 06:20:26;;;;;;;4.43;4.03;;;12.90;96.60;;;;;;4865081;29;21110;-80
2021/05/30 06:22:52;;;;;;;4.87;3.83;;;13.00;96.40;;;;;;4865166;29;20549;-80
2021/05/30 06:25:18;;;;;;;3.33;2.63;;;13.10;96.20;;;;;;4865846;29;20457;-79
2021/05/30 06:27:45;;;;;;;3.73;3.30;;;13.20;95.80;;;;;;4869543;29;20469;-80
2021/05/30 06:30:12;;;;;;;3.40;3.10;;;13.30;95.20;;;;;;4869810;29;20553;-79
2021/05/30 06:32:39;;;;;;;4.40;2.83;;;13.40;95.10;;;;;;4869141;29;20498;-79
2021/05/30 06:35:07;;;;;;;3.57;3.27;;;13.50;94.30;;;;;;4867011;29;20468;-80
2021/05/30 06:37:35;;;;;;;3.00;2.80;;;13.60;94.20;;;;;;4864823;29;20532;-80
2021/05/30 06:40:03;;;;;;;3.10;2.90;;;13.60;93.70;;;;;;4864887;29;20536;-80
2021/05/30 06:42:29;;;;;;;4.73;3.90;;;13.70;93.30;;;;;;4864330;29;20484;-80
2021/05/30 06:44:55;;;;;;;5.10;4.33;;;13.70;92.80;;;;;;4864905;29;20473;-80
2021/05/30 06:47:22;;;;;;;4.97;3.40;;;13.80;93.00;;;;;;4864728;29;20461;-80
2021/05/30 06:49:49;;;;;;;4.37;3.97;;;13.90;92.80;;;;;;4864559;29;20886;-80
2021/05/30 06:52:15;;;;;;;5.60;4.00;;;14.00;92.70;;;;;;4864564;29;21007;-81
2021/05/30 06:54:41;;;;;;;3.13;2.93;;;14.10;92.60;;;;;;4865025;29;20523;-80
2021/05/30 06:57:08;;;;;;;3.87;3.50;;;14.10;92.60;;;;;;4864855;29;20462;-81
2021/05/30 06:59:35;;;;;;;3.63;3.33;;;14.10;92.30;;;;;;4864415;29;20477;-81
2021/05/30 07:02:01;;;;;;;3.50;3.20;;;14.20;92.20;;;;;;4864195;29;20463;-81
2021/05/30 07:04:28;;;;;;;3.60;3.30;;;14.30;91.80;;;;;;4864932;29;20463;-80
2021/05/30 07:06:55;;;;;;;3.80;3.50;;;14.30;91.60;;;;;;4864395;29;20959;-81
2021/05/30 07:09:22;;;;;;;4.30;3.63;;;14.40;91.20;;;;;;4863908;29;20481;-80
2021/05/30 07:11:48;;;;;;;3.40;3.10;;;14.50;91.20;;;;;;4864140;29;20493;-81
2021/05/30 07:14:15;;;;;;;3.77;3.47;;;14.50;91.00;;;;;;4864719;29;21029;-81
2021/05/30 07:16:41;;;;;;;3.47;3.27;;;14.70;91.00;;;;;;4864978;29;20467;-81
2021/05/30 07:19:07;;;;;;;3.50;2.90;;;14.70;90.50;;;;;;4865303;29;20458;-82
2021/05/30 07:21:34;;;;;;;3.53;3.23;;;14.80;90.00;;;;;;4866005;29;20960;-82
2021/05/30 07:24:01;;;;;;;3.40;3.10;;;14.90;89.20;;;;;;4866233;29;20467;-82
2021/05/30 07:26:28;;;;;;;3.00;2.80;;;15.00;87.90;;;;;;4865887;29;20462;-81
2021/05/30 07:28:54;;;;;;;4.63;3.67;;;15.10;89.60;;;;;;4866055;29;20463;-82
2021/05/30 07:31:21;;;;;;;3.47;3.17;;;15.10;89.20;;;;;;4865818;29;20492;-81
2021/05/30 07:33:47;;;;;;;3.27;3.07;;;15.20;89.20;;;;;;4865815;29;20472;-80
2021/05/30 07:36:14;;;;;;;4.70;3.67;;;15.30;88.50;;;;;;4866001;29;20916;-82
2021/05/30 07:38:41;;;;;;;2.90;2.70;;;15.40;87.70;;;;;;4866435;29;20824;-82
2021/05/30 07:41:08;;;;;;;3.17;2.97;;;15.40;87.40;;;;;;4866597;29;20538;-80
2021/05/30 07:43:34;;;;;;;3.50;3.20;;;15.50;87.10;;;;;;4866022;29;20494;-82
2021/05/30 07:46:01;;;;;;;3.33;3.13;;;15.60;87.50;;;;;;4866239;29;20469;-82
2021/05/30 07:48:27;;;;;;;3.50;3.30;;;15.60;85.70;;;;;;4866392;29;20462;-82
2021/05/30 07:50:53;;;;;;;3.40;3.10;;;15.70;84.80;;;;;;4867483;29;21062;-80
2021/05/30 07:53:20;;;;;;;3.57;3.27;;;15.70;85.20;;;;;;4869485;29;20501;-80
2021/05/30 07:55:46;;;;;;;3.00;2.70;;;15.80;85.10;;;;;;4869305;29;20496;-82
2021/05/30 07:58:13;;;;;;;3.43;3.13;;;15.90;84.40;;;;;;4869761;29;20466;-82
2021/05/30 08:00:40;;;;;;;2.60;2.40;;;16.00;84.70;;;;;;4869956;29;20854;-81
2021/05/30 08:03:06;;;;;;;3.43;3.13;;;16.10;82.50;;;;;;4869303;29;20482;-82
2021/05/30 08:05:33;;;;;;;3.73;3.40;;;16.10;82.00;;;;;;4869228;29;20461;-82
2021/05/30 08:07:59;;;;;;;2.80;2.60;;;16.10;84.30;;;;;;4869495;29;20988;-82
2021/05/30 08:10:28;;;;;;;3.40;3.10;;;16.20;83.20;;;;;;4869331;29;20485;-82
2021/05/30 08:12:55;;;;;;;2.93;2.73;;;16.30;82.60;;;;;;4868983;29;20494;-82
2021/05/30 08:15:24;;;;;;;2.83;2.63;;;16.40;82.50;;;;;;4869251;29;20466;-82
2021/05/30 08:17:51;;;;;;;3.77;3.23;;;16.50;81.70;;;;;;4869253;29;20466;-81
2021/05/30 08:20:19;;;;;;;3.10;2.80;;;16.50;79.50;;;;;;4869233;29;20489;-83
2021/05/30 08:22:46;;;;;;;5.73;3.63;;;16.50;80.80;;;;;;4868093;29;20451;-80
2021/05/30 08:25:13;;;;;;;3.57;3.27;;;16.60;82.30;;;;;;4869213;29;20459;-80
2021/05/30 08:27:40;;;;;;;3.37;2.90;;;16.70;82.30;;;;;;4863816;29;20520;-81
2021/05/30 08:30:08;;;;;;;3.27;2.93;;;16.80;83.40;;;;;;4838451;29;20477;-80
2021/05/30 08:32:36;;;;;;;4.60;4.20;;;17.00;83.60;;;;;;4838642;29;20967;-81
2021/05/30 08:35:03;;;;;;;3.93;3.63;;;17.10;81.70;;;;;;4839501;29;20986;-79
2021/05/30 08:37:29;;;;;;;4.07;3.30;;;17.20;80.10;;;;;;4838810;29;20948;-81
2021/05/30 08:40:07;;;;;;;3.00;2.50;;;17.30;77.70;;;;;;4852293;29;20506;-81
2021/05/30 08:42:34;;;;;;;2.53;2.30;;;17.40;70.90;;;;;;4837709;29;20585;-80
2021/05/30 08:45:00;;;;;;;3.03;2.60;;;17.50;70.70;;;;;;4840517;29;20540;-79
2021/05/30 08:47:28;;;;;;;3.03;2.80;;;17.60;71.10;;;;;;4841948;29;20454;-81
2021/05/30 08:50:01;;;;;;;2.90;2.80;;;17.70;69.90;;;;;;4840548;29;20625;-80
2021/05/30 08:52:27;;;;;;;3.33;3.13;;;17.80;71.90;;;;;;4840387;29;21017;-80
2021/05/30 08:54:56;;;;;;;3.53;3.20;;;17.90;72.60;;;;;;4840532;29;20473;-80
2021/05/30 08:57:23;;;;;;;2.80;2.57;;;18.00;72.70;;;;;;4838474;29;20469;-80
2021/05/30 08:59:54;;;;;;;3.23;3.03;;;18.20;72.30;;;;;;4864997;29;20479;-81
2021/05/30 09:02:21;;;;;;;5.00;3.00;;;18.30;70.90;;;;;;4866254;29;20962;-80
2021/05/30 09:04:52;;;;;;;5.00;3.10;;;18.30;69.80;;;;;;4867224;29;20466;-80
2021/05/30 09:07:20;;;;;;;2.90;2.70;;;18.50;69.80;;;;;;4867675;29;20474;-80
2021/05/30 09:09:47;;;;;;;3.10;2.90;;;18.50;70.90;;;;;;4866884;29;20469;-80
2021/05/30 09:12:21;;;;;;;3.10;2.80;;;18.60;67.60;;;;;;4867428;29;20576;-80
2021/05/30 09:14:50;;;;;;;6.20;3.23;;;18.70;67.90;;;;;;4866511;29;20461;-81
2021/05/30 09:17:18;;;;;;;3.30;3.07;;;18.70;67.50;;;;;;4866502;29;20521;-82
2021/05/30 09:39:09;;;;;;;3.20;2.90;;;19.40;61.80;;;;;;4685617;30;20987;-84
2021/05/30 09:41:59;;;;;;;2.83;2.53;;;19.40;60.90;;;;;;4846046;29;20453;-83
2021/05/30 09:45:20;;;;;;;2.57;2.37;;;19.40;62.10;;;;;;4848412;29;20441;-84
2021/05/30 09:51:33;;;;;;;3.07;2.77;;;19.20;61.50;;;;;;4703126;30;20527;-83
2021/05/30 09:54:48;;;;;;;3.80;3.40;;;19.30;62.60;;;;;;4702457;30;20473;-83
2021/05/30 10:04:44;;;;;;;4.23;2.57;;;19.90;64.40;;;;;;4735425;30;20448;-83
2021/05/30 10:07:15;;;;;;;3.90;3.60;;;20.20;65.00;;;;;;4756446;29;20471;-82
2021/05/30 10:09:41;;;;;;;2.70;2.50;;;20.50;59.60;;;;;;4827734;29;20468;-82
2021/05/30 10:15:23;;;;;;;2.80;2.60;;;20.80;61.60;;;;;;4816878;29;20457;-82
2021/05/30 10:18:14;;;;;;;3.07;2.80;;;21.10;61.20;;;;;;4827825;29;20549;-84
2021/05/30 10:37:41;;;;;;;;;;;;;;;;;;;;;
2021/05/30 10:52:02;;;;;;;3.30;3.10;;;22.20;55.60;;;;;;4650333;30;20497;-84
2021/05/30 10:57:58;;;;;;;8.40;3.80;;;22.10;55.20;;;;;;4688964;30;20905;-84
2021/05/30 11:05:03;;;;;;;;;;;;;;;;;;;;;
2021/05/30 11:08:05;;;;;;;4.00;3.70;;;23.00;54.60;;;;;;4709645;30;20474;-84
2021/05/30 14:43:38;;;;;;;;;;;;;;;;;;;;;
2021/05/30 14:46:11;;;;;;;3.30;3.10;;;36.70;25.10;;;;;;4794114;29;20458;-83
2021/05/30 14:48:39;;;;;;;3.50;3.30;;;35.90;24.70;;;;;;4850366;29;20498;-83
2021/05/30 14:51:08;;;;;;;2.80;2.60;;;35.90;25.60;;;;;;4850011;29;20485;-83
2021/05/30 14:53:37;;;;;;;3.37;3.00;;;36.00;24.90;;;;;;4851351;29;20485;-83
2021/05/30 14:56:05;;;;;;;3.47;3.27;;;35.80;24.90;;;;;;4851828;29;20466;-83
2021/05/30 14:58:32;;;;;;;3.10;2.90;;;35.80;25.00;;;;;;4851736;29;20462;-82
2021/05/30 15:01:24;;;;;;;3.30;3.00;;;35.60;25.50;;;;;;4851323;29;20497;-83
2021/05/30 15:03:50;;;;;;;3.33;3.13;;;36.10;26.00;;;;;;4835238;29;20486;-83
2021/05/30 15:06:18;;;;;;;3.23;2.90;;;36.00;25.70;;;;;;4847020;29;20486;-83
2021/05/30 15:15:22;;;;;;;;;;;;;;;;;;;;;
2021/05/30 15:28:32;;;;;;;3.30;3.10;;;35.40;25.30;;;;;;4649654;30;20908;-82
2021/05/30 15:31:04;;;;;;;3.50;3.20;;;35.70;25.40;;;;;;4834054;29;20482;-83
2021/05/30 15:33:35;;;;;;;4.10;2.80;;;36.10;25.70;;;;;;4847010;29;20492;-83
2021/05/30 15:36:17;;;;;;;3.40;3.20;;;36.70;25.00;;;;;;4846443;29;20829;-84
2021/05/30 15:38:47;;;;;;;2.80;2.63;;;37.30;24.70;;;;;;4847152;29;20526;-83
2021/05/30 15:41:14;;;;;;;3.30;3.03;;;37.80;24.60;;;;;;4847405;29;20486;-83
2021/05/30 15:43:42;;;;;;;2.97;2.77;;;38.30;24.30;;;;;;4847770;29;21140;-79
2021/05/30 15:46:10;;;;;;;3.17;2.97;;;38.60;23.70;;;;;;4847175;29;20454;-80
2021/05/30 15:48:36;;;;;;;3.00;2.80;;;38.60;23.00;;;;;;4846835;29;20462;-80
2021/05/30 15:53:47;;;;;;;91.47;86.40;;;38.40;23.10;;;;;;4846753;29;21006;-79
2021/05/30 15:56:13;;;;;;;59.77;56.70;;;38.10;22.80;;;;;;4846758;29;20461;-80
2021/05/30 15:58:40;;;;;;;6.87;6.50;;;37.50;23.20;;;;;;4846759;29;20811;-79
2021/05/30 16:01:06;;;;;;;51.80;46.60;;;37.60;23.40;;;;;;4846772;29;20474;-79
2021/05/30 16:03:33;;;;;;;5.27;4.87;;;37.80;23.70;;;;;;4846282;29;20465;-79
2021/05/30 16:05:59;;;;;;;73.97;68.53;;;38.10;23.00;;;;;;4846892;29;20466;-79
2021/05/30 16:08:25;;;;;;;10.33;9.73;;;38.40;22.70;;;;;;4846151;29;20499;-79
2021/05/30 16:10:51;;;;;;;4.30;4.00;;;38.20;22.40;;;;;;4847006;29;20843;-79
2021/05/30 16:13:18;;;;;;;4.17;3.87;;;37.70;22.80;;;;;;4850245;29;20502;-79
2021/05/30 16:15:45;;;;;;;2.97;2.77;;;37.40;23.10;;;;;;4850513;29;20473;-79
2021/05/30 16:18:11;;;;;;;21.43;20.03;;;37.40;23.20;;;;;;4850261;29;20472;-80
2021/05/30 16:20:38;;;;;;;27.00;25.33;;;37.70;22.80;;;;;;4849730;29;20486;-79
2021/05/30 16:23:05;;;;;;;20.33;18.93;;;36.70;22.40;;;;;;4850017;29;20462;-79
2021/05/30 16:25:32;;;;;;;4.10;3.90;;;35.90;23.30;;;;;;4849540;29;20462;-79
2021/05/30 16:27:58;;;;;;;3.80;3.50;;;36.10;23.80;;;;;;4850071;29;20462;-79
2021/05/30 16:30:24;;;;;;;8.53;7.90;;;36.60;23.80;;;;;;4850129;29;20478;-80
2021/05/30 16:32:52;;;;;;;5.47;4.83;;;37.30;23.50;;;;;;4849537;29;20490;-79
2021/05/30 16:35:18;;;;;;;3.77;3.57;;;37.90;22.90;;;;;;4849804;29;20472;-80
2021/05/30 16:37:45;;;;;;;4.20;3.90;;;38.50;22.70;;;;;;4850233;29;20458;-80
2021/05/30 16:40:12;;;;;;;4.13;3.83;;;39.10;22.20;;;;;;4850056;29;20492;-80
2021/05/30 16:42:38;;;;;;;6.90;6.40;;;39.60;21.80;;;;;;4849567;29;20461;-80
2021/05/30 16:45:06;;;;;;;12.13;11.40;;;39.90;21.30;;;;;;4850079;29;20472;-80
2021/05/30 16:47:32;;;;;;;4.73;4.43;;;39.70;21.80;;;;;;4850144;29;20494;-80
2021/05/30 16:49:59;;;;;;;10.47;9.80;;;39.90;21.40;;;;;;4849885;29;20849;-80
2021/05/30 16:52:25;;;;;;;22.37;21.17;;;40.00;20.60;;;;;;4849754;29;20494;-80
2021/05/30 16:54:52;;;;;;;4.80;4.50;;;39.90;20.80;;;;;;4849647;29;20462;-80
2021/05/30 16:57:20;;;;;;;4.30;3.87;;;40.00;20.80;;;;;;4849683;29;20473;-80
2021/05/30 16:59:46;;;;;;;3.90;3.57;;;40.10;20.90;;;;;;4850245;29;20482;-80
2021/05/30 17:02:14;;;;;;;4.80;4.53;;;40.00;20.90;;;;;;4849543;29;20454;-80
2021/05/30 17:04:40;;;;;;;3.17;2.97;;;40.10;21.00;;;;;;4849789;29;20462;-80
2021/05/30 17:07:08;;;;;;;4.27;4.00;;;40.00;20.70;;;;;;4848494;29;20831;-79
2021/05/30 17:09:35;;;;;;;3.17;2.97;;;40.10;20.70;;;;;;4848472;29;20558;-79
2021/05/30 17:12:01;;;;;;;2.67;2.47;;;40.00;20.70;;;;;;4847002;29;20450;-79
2021/05/30 17:14:28;;;;;;;4.67;4.37;;;40.00;20.70;;;;;;4850071;29;20458;-80
2021/05/30 17:16:54;;;;;;;3.03;2.83;;;39.90;20.60;;;;;;4848861;29;20462;-80
2021/05/30 17:19:21;;;;;;;4.50;4.30;;;40.00;20.70;;;;;;4849317;29;20552;-80
2021/05/30 17:21:47;;;;;;;14.53;13.43;;;39.90;20.60;;;;;;4849649;29;20558;-80
2021/05/30 17:24:15;;;;;;;11.03;10.13;;;38.40;20.30;;;;;;4848573;29;20470;-80
2021/05/30 17:26:42;;;;;;;7.23;6.80;;;37.60;21.50;;;;;;4850042;29;20458;-80
2021/05/30 17:29:08;;;;;;;3.37;3.17;;;36.70;21.70;;;;;;4850210;29;20467;-80
2021/05/30 17:31:35;;;;;;;3.40;3.10;;;35.70;22.70;;;;;;4849369;29;20494;-79
2021/05/30 17:34:01;;;;;;;2.70;2.50;;;35.10;23.10;;;;;;4851064;29;20498;-81
2021/05/30 17:36:29;;;;;;;59.57;53.77;;;34.40;23.60;;;;;;4853281;29;20469;-80
2021/05/30 17:38:55;;;;;;;7.80;7.07;;;33.60;23.70;;;;;;4850633;29;20470;-81
2021/05/30 17:41:22;;;;;;;30.30;27.57;;;33.00;23.80;;;;;;4850560;29;20443;-82
2021/05/30 17:43:48;;;;;;;3.37;2.73;;;32.70;25.10;;;;;;4852551;29;20462;-85
2021/05/30 17:46:14;;;;;;;48.03;43.93;;;32.60;25.00;;;;;;4852178;29;20465;-85
2021/05/30 17:48:41;;;;;;;5.90;5.33;;;32.60;25.30;;;;;;4849827;29;20462;-85
2021/05/30 17:51:08;;;;;;;34.00;31.50;;;32.40;25.60;;;;;;4849965;29;20491;-85
2021/05/30 17:53:36;;;;;;;8.40;7.90;;;32.10;25.50;;;;;;4850115;29;20491;-85
2021/05/30 17:56:06;;;;;;;9.77;6.30;;;31.70;25.60;;;;;;4850543;29;20463;-85
2021/05/30 17:58:37;;;;;;;4.10;3.80;;;31.40;26.10;;;;;;4849450;29;20457;-85
2021/05/30 18:01:04;;;;;;;8.83;5.00;;;30.90;26.00;;;;;;4849915;29;20480;-83